Terminal Aerodrome Forecast
Issued by NWS

Home | Current Version | Previous Version | Text Only | Print | Product List | Glossary On
Versions: 1 2 3 4 5 6 7 8 9 10 11 12 13 14 15 16 17
000
FTUS43 KBIS 202335
TAFMOT
TAF
KMOT 202335Z 2100/2124 17006KT 6SM BR OVC004
     FM210400 17004KT 1/2SM FZFG BKN003
     FM211300 05005KT 1/2SM FZFG OVC003
     FM211600 03005KT 1SM -FZDZ BR OVC003
     FM212100 36005KT P6SM OVC008=

USA.gov is the U.S. government's official web portal to all federal, state and local government web resources and services.